sensor_id;sensor_type;location;lat;lon;timestamp;P1;durP1;ratioP1;P2;durP2;ratioP2
27778;SDS011;30234;48.090;11.464;2023-03-16T00:03:48;4.13;;;2.50;;
27778;SDS011;30234;48.090;11.464;2023-03-16T00:07:48;9.82;;;2.90;;
27778;SDS011;30234;48.090;11.464;2023-03-16T00:11:49;6.07;;;2.90;;
27778;SDS011;30234;48.090;11.464;2023-03-16T00:15:54;4.05;;;2.80;;
27778;SDS011;30234;48.090;11.464;2023-03-16T00:19:58;5.28;;;2.80;;
27778;SDS011;30234;48.090;11.464;2023-03-16T00:23:58;3.42;;;2.28;;
27778;SDS011;30234;48.090;11.464;2023-03-16T00:28:00;4.65;;;2.38;;
27778;SDS011;30234;48.090;11.464;2023-03-16T00:32:02;3.33;;;2.53;;
27778;SDS011;30234;48.090;11.464;2023-03-16T00:36:04;4.00;;;2.20;;
27778;SDS011;30234;48.090;11.464;2023-03-16T00:40:08;4.70;;;2.20;;
27778;SDS011;30234;48.090;11.464;2023-03-16T00:44:11;3.92;;;2.30;;
27778;SDS011;30234;48.090;11.464;2023-03-16T00:48:12;3.17;;;2.15;;
27778;SDS011;30234;48.090;11.464;2023-03-16T00:52:13;3.78;;;2.40;;
27778;SDS011;30234;48.090;11.464;2023-03-16T00:56:14;4.72;;;2.50;;
27778;SDS011;30234;48.090;11.464;2023-03-16T01:00:16;2.55;;;1.83;;
27778;SDS011;30234;48.090;11.464;2023-03-16T01:04:20;2.92;;;1.98;;
27778;SDS011;30234;48.090;11.464;2023-03-16T01:08:21;4.03;;;2.22;;
27778;SDS011;30234;48.090;11.464;2023-03-16T01:12:22;7.63;;;3.00;;
27778;SDS011;30234;48.090;11.464;2023-03-16T01:16:23;4.53;;;2.40;;
27778;SDS011;30234;48.090;11.464;2023-03-16T01:20:24;3.63;;;2.10;;
27778;SDS011;30234;48.090;11.464;2023-03-16T01:24:25;2.95;;;2.13;;
27778;SDS011;30234;48.090;11.464;2023-03-16T01:28:27;3.00;;;1.63;;
27778;SDS011;30234;48.090;11.464;2023-03-16T01:32:31;3.58;;;2.05;;
27778;SDS011;30234;48.090;11.464;2023-03-16T01:36:33;3.10;;;2.28;;
27778;SDS011;30234;48.090;11.464;2023-03-16T01:40:34;3.03;;;2.13;;
27778;SDS011;30234;48.090;11.464;2023-03-16T01:53:08;3.30;;;2.30;;
27778;SDS011;30234;48.090;11.464;2023-03-16T01:57:14;1.95;;;1.85;;
27778;SDS011;30234;48.090;11.464;2023-03-16T02:01:23;3.75;;;2.40;;
27778;SDS011;30234;48.090;11.464;2023-03-16T02:05:31;4.93;;;2.22;;
27778;SDS011;30234;48.090;11.464;2023-03-16T02:09:43;4.50;;;1.80;;
27778;SDS011;30234;48.090;11.464;2023-03-16T02:13:46;3.40;;;2.13;;
27778;SDS011;30234;48.090;11.464;2023-03-16T02:17:48;2.90;;;1.90;;
27778;SDS011;30234;48.090;11.464;2023-03-16T02:21:54;3.05;;;2.53;;
27778;SDS011;30234;48.090;11.464;2023-03-16T02:30:15;2.95;;;1.92;;
27778;SDS011;30234;48.090;11.464;2023-03-16T02:34:17;4.93;;;2.05;;
27778;SDS011;30234;48.090;11.464;2023-03-16T02:38:18;3.80;;;2.22;;
27778;SDS011;30234;48.090;11.464;2023-03-16T02:42:20;3.13;;;2.08;;
27778;SDS011;30234;48.090;11.464;2023-03-16T02:46:24;3.55;;;2.30;;
27778;SDS011;30234;48.090;11.464;2023-03-16T02:50:28;3.03;;;1.85;;
27778;SDS011;30234;48.090;11.464;2023-03-16T02:54:29;2.85;;;2.30;;
27778;SDS011;30234;48.090;11.464;2023-03-16T02:58:30;4.18;;;2.15;;
27778;SDS011;30234;48.090;11.464;2023-03-16T03:02:31;5.22;;;2.20;;
27778;SDS011;30234;48.090;11.464;2023-03-16T03:06:32;3.17;;;1.90;;
27778;SDS011;30234;48.090;11.464;2023-03-16T03:10:33;4.00;;;2.20;;
27778;SDS011;30234;48.090;11.464;2023-03-16T03:14:34;3.30;;;1.70;;
27778;SDS011;30234;48.090;11.464;2023-03-16T03:18:38;3.90;;;2.15;;
27778;SDS011;30234;48.090;11.464;2023-03-16T03:22:40;2.35;;;1.98;;
27778;SDS011;30234;48.090;11.464;2023-03-16T03:26:43;8.90;;;1.95;;
27778;SDS011;30234;48.090;11.464;2023-03-16T03:30:44;5.85;;;2.65;;
27778;SDS011;30234;48.090;11.464;2023-03-16T03:34:45;2.90;;;2.10;;
27778;SDS011;30234;48.090;11.464;2023-03-16T03:38:46;2.90;;;1.85;;
27778;SDS011;30234;48.090;11.464;2023-03-16T03:42:48;2.67;;;2.05;;
27778;SDS011;30234;48.090;11.464;2023-03-16T03:46:50;2.70;;;1.88;;
27778;SDS011;30234;48.090;11.464;2023-03-16T03:50:51;5.38;;;1.98;;
27778;SDS011;30234;48.090;11.464;2023-03-16T03:54:53;3.55;;;2.05;;
27778;SDS011;30234;48.090;11.464;2023-03-16T03:58:54;6.50;;;2.10;;
27778;SDS011;30234;48.090;11.464;2023-03-16T04:02:55;6.20;;;2.60;;
27778;SDS011;30234;48.090;11.464;2023-03-16T04:06:56;3.78;;;2.13;;
27778;SDS011;30234;48.090;11.464;2023-03-16T04:10:57;2.97;;;2.28;;
27778;SDS011;30234;48.090;11.464;2023-03-16T04:14:57;4.60;;;2.40;;
27778;SDS011;30234;48.090;11.464;2023-03-16T04:18:58;5.53;;;2.47;;
27778;SDS011;30234;48.090;11.464;2023-03-16T04:23:00;3.78;;;1.98;;
27778;SDS011;30234;48.090;11.464;2023-03-16T04:27:01;3.70;;;2.42;;
27778;SDS011;30234;48.090;11.464;2023-03-16T04:31:03;4.50;;;2.25;;
27778;SDS011;30234;48.090;11.464;2023-03-16T04:35:06;3.17;;;2.38;;
27778;SDS011;30234;48.090;11.464;2023-03-16T04:39:08;7.15;;;2.28;;
27778;SDS011;30234;48.090;11.464;2023-03-16T04:43:09;2.65;;;2.28;;
27778;SDS011;30234;48.090;11.464;2023-03-16T04:47:11;6.10;;;2.20;;
27778;SDS011;30234;48.090;11.464;2023-03-16T04:51:14;2.78;;;2.28;;
27778;SDS011;30234;48.090;11.464;2023-03-16T04:55:15;5.63;;;2.47;;
27778;SDS011;30234;48.090;11.464;2023-03-16T04:59:16;4.05;;;3.03;;
27778;SDS011;30234;48.090;11.464;2023-03-16T05:03:18;5.38;;;2.13;;
27778;SDS011;30234;48.090;11.464;2023-03-16T05:07:19;4.50;;;2.67;;
27778;SDS011;30234;48.090;11.464;2023-03-16T05:11:20;2.92;;;2.42;;
27778;SDS011;30234;48.090;11.464;2023-03-16T05:15:21;4.30;;;2.60;;
27778;SDS011;30234;48.090;11.464;2023-03-16T05:19:22;6.85;;;3.63;;
27778;SDS011;30234;48.090;11.464;2023-03-16T05:23:23;9.25;;;5.05;;
27778;SDS011;30234;48.090;11.464;2023-03-16T05:27:24;5.82;;;4.00;;
27778;SDS011;30234;48.090;11.464;2023-03-16T05:31:25;6.85;;;4.80;;
27778;SDS011;30234;48.090;11.464;2023-03-16T05:35:26;8.68;;;4.53;;
27778;SDS011;30234;48.090;11.464;2023-03-16T05:39:27;8.27;;;5.78;;
27778;SDS011;30234;48.090;11.464;2023-03-16T05:43:30;11.40;;;6.45;;
27778;SDS011;30234;48.090;11.464;2023-03-16T05:47:31;12.77;;;7.40;;
27778;SDS011;30234;48.090;11.464;2023-03-16T05:51:32;12.90;;;7.28;;
27778;SDS011;30234;48.090;11.464;2023-03-16T05:55:33;11.98;;;7.32;;
27778;SDS011;30234;48.090;11.464;2023-03-16T05:59:34;8.23;;;6.45;;
27778;SDS011;30234;48.090;11.464;2023-03-16T06:03:35;13.68;;;8.02;;
27778;SDS011;30234;48.090;11.464;2023-03-16T06:07:36;13.55;;;8.63;;
27778;SDS011;30234;48.090;11.464;2023-03-16T06:11:37;16.50;;;9.63;;
27778;SDS011;30234;48.090;11.464;2023-03-16T06:15:50;17.88;;;9.90;;
27778;SDS011;30234;48.090;11.464;2023-03-16T06:19:51;17.35;;;9.80;;
27778;SDS011;30234;48.090;11.464;2023-03-16T06:23:52;14.88;;;10.25;;
27778;SDS011;30234;48.090;11.464;2023-03-16T06:27:53;19.85;;;10.77;;
27778;SDS011;30234;48.090;11.464;2023-03-16T06:31:54;17.15;;;11.05;;
27778;SDS011;30234;48.090;11.464;2023-03-16T06:35:56;18.23;;;10.68;;
27778;SDS011;30234;48.090;11.464;2023-03-16T06:39:56;15.80;;;10.52;;
27778;SDS011;30234;48.090;11.464;2023-03-16T06:43:57;17.90;;;10.18;;
27778;SDS011;30234;48.090;11.464;2023-03-16T06:47:58;16.50;;;9.90;;
27778;SDS011;30234;48.090;11.464;2023-03-16T06:52:00;18.98;;;10.57;;
27778;SDS011;30234;48.090;11.464;2023-03-16T06:56:02;18.98;;;10.43;;
27778;SDS011;30234;48.090;11.464;2023-03-16T07:00:03;18.08;;;10.55;;
27778;SDS011;30234;48.090;11.464;2023-03-16T07:04:06;17.60;;;8.68;;
27778;SDS011;30234;48.090;11.464;2023-03-16T07:08:07;18.30;;;10.82;;
27778;SDS011;30234;48.090;11.464;2023-03-16T07:12:09;16.42;;;9.55;;
27778;SDS011;30234;48.090;11.464;2023-03-16T07:16:10;17.98;;;9.98;;
27778;SDS011;30234;48.090;11.464;2023-03-16T07:20:11;17.25;;;9.45;;
27778;SDS011;30234;48.090;11.464;2023-03-16T07:24:12;16.02;;;9.95;;
27778;SDS011;30234;48.090;11.464;2023-03-16T07:28:14;19.67;;;10.00;;
27778;SDS011;30234;48.090;11.464;2023-03-16T07:32:15;17.33;;;9.77;;
27778;SDS011;30234;48.090;11.464;2023-03-16T07:36:16;15.73;;;9.68;;
27778;SDS011;30234;48.090;11.464;2023-03-16T07:40:17;17.00;;;8.98;;
27778;SDS011;30234;48.090;11.464;2023-03-16T07:44:18;13.35;;;8.27;;
27778;SDS011;30234;48.090;11.464;2023-03-16T07:48:19;13.77;;;8.90;;
27778;SDS011;30234;48.090;11.464;2023-03-16T07:52:20;18.00;;;8.13;;
27778;SDS011;30234;48.090;11.464;2023-03-16T07:56:23;15.88;;;8.93;;
27778;SDS011;30234;48.090;11.464;2023-03-16T08:00:24;11.18;;;7.68;;
27778;SDS011;30234;48.090;11.464;2023-03-16T08:04:25;10.20;;;7.63;;
27778;SDS011;30234;48.090;11.464;2023-03-16T08:08:25;10.63;;;8.15;;
27778;SDS011;30234;48.090;11.464;2023-03-16T08:12:26;10.55;;;6.43;;
27778;SDS011;30234;48.090;11.464;2023-03-16T08:16:27;10.55;;;7.68;;
27778;SDS011;30234;48.090;11.464;2023-03-16T08:20:28;8.23;;;6.35;;
27778;SDS011;30234;48.090;11.464;2023-03-16T08:24:29;10.23;;;6.97;;
27778;SDS011;30234;48.090;11.464;2023-03-16T08:28:31;9.88;;;6.93;;
27778;SDS011;30234;48.090;11.464;2023-03-16T08:32:32;9.60;;;6.72;;
27778;SDS011;30234;48.090;11.464;2023-03-16T08:36:33;9.48;;;6.88;;
27778;SDS011;30234;48.090;11.464;2023-03-16T08:40:36;8.65;;;6.78;;
27778;SDS011;30234;48.090;11.464;2023-03-16T08:44:36;8.70;;;6.15;;
27778;SDS011;30234;48.090;11.464;2023-03-16T08:48:41;7.22;;;5.75;;
27778;SDS011;30234;48.090;11.464;2023-03-16T08:52:42;9.77;;;6.93;;
27778;SDS011;30234;48.090;11.464;2023-03-16T08:56:43;7.80;;;5.80;;
27778;SDS011;30234;48.090;11.464;2023-03-16T09:00:43;8.82;;;6.05;;
27778;SDS011;30234;48.090;11.464;2023-03-16T09:04:44;11.13;;;6.07;;
27778;SDS011;30234;48.090;11.464;2023-03-16T09:08:46;6.57;;;5.30;;
27778;SDS011;30234;48.090;11.464;2023-03-16T09:12:50;8.60;;;5.53;;
27778;SDS011;30234;48.090;11.464;2023-03-16T09:16:52;6.35;;;4.88;;
27778;SDS011;30234;48.090;11.464;2023-03-16T09:20:56;6.32;;;5.00;;
27778;SDS011;30234;48.090;11.464;2023-03-16T09:25:00;8.77;;;5.43;;
27778;SDS011;30234;48.090;11.464;2023-03-16T09:29:02;6.50;;;4.50;;
27778;SDS011;30234;48.090;11.464;2023-03-16T09:33:03;5.80;;;4.93;;
27778;SDS011;30234;48.090;11.464;2023-03-16T09:37:04;6.03;;;5.13;;
27778;SDS011;30234;48.090;11.464;2023-03-16T09:41:09;8.52;;;5.28;;
27778;SDS011;30234;48.090;11.464;2023-03-16T09:45:58;6.18;;;5.35;;
27778;SDS011;30234;48.090;11.464;2023-03-16T09:50:27;7.03;;;4.95;;
27778;SDS011;30234;48.090;11.464;2023-03-16T09:54:38;6.60;;;4.70;;
27778;SDS011;30234;48.090;11.464;2023-03-16T09:59:12;5.53;;;4.65;;
27778;SDS011;30234;48.090;11.464;2023-03-16T10:07:59;7.65;;;5.05;;
27778;SDS011;30234;48.090;11.464;2023-03-16T10:12:21;5.40;;;4.68;;
27778;SDS011;30234;48.090;11.464;2023-03-16T10:20:37;4.65;;;4.25;;
27778;SDS011;30234;48.090;11.464;2023-03-16T10:29:19;5.95;;;4.90;;
27778;SDS011;30234;48.090;11.464;2023-03-16T10:37:28;5.82;;;4.80;;
27778;SDS011;30234;48.090;11.464;2023-03-16T10:41:32;6.50;;;4.93;;
27778;SDS011;30234;48.090;11.464;2023-03-16T10:45:41;5.18;;;4.68;;
27778;SDS011;30234;48.090;11.464;2023-03-16T10:49:43;5.93;;;4.60;;
27778;SDS011;30234;48.090;11.464;2023-03-16T10:53:50;5.18;;;4.38;;
27778;SDS011;30234;48.090;11.464;2023-03-16T10:57:52;7.57;;;3.85;;
27778;SDS011;30234;48.090;11.464;2023-03-16T11:01:55;6.18;;;4.20;;
27778;SDS011;30234;48.090;11.464;2023-03-16T11:06:06;6.65;;;4.32;;
27778;SDS011;30234;48.090;11.464;2023-03-16T11:14:32;6.15;;;4.15;;
27778;SDS011;30234;48.090;11.464;2023-03-16T11:22:37;5.05;;;4.18;;
27778;SDS011;30234;48.090;11.464;2023-03-16T11:26:39;4.63;;;3.72;;
27778;SDS011;30234;48.090;11.464;2023-03-16T11:34:55;4.70;;;3.78;;
27778;SDS011;30234;48.090;11.464;2023-03-16T11:47:55;5.05;;;4.00;;
27778;SDS011;30234;48.090;11.464;2023-03-16T12:01:13;6.78;;;4.50;;
27778;SDS011;30234;48.090;11.464;2023-03-16T12:05:58;5.60;;;4.00;;
27778;SDS011;30234;48.090;11.464;2023-03-16T12:10:28;4.88;;;4.03;;
27778;SDS011;30234;48.090;11.464;2023-03-16T12:15:18;5.25;;;3.42;;
27778;SDS011;30234;48.090;11.464;2023-03-16T12:19:40;4.47;;;3.75;;
27778;SDS011;30234;48.090;11.464;2023-03-16T12:24:02;4.93;;;3.60;;
27778;SDS011;30234;48.090;11.464;2023-03-16T12:28:10;6.18;;;4.05;;
27778;SDS011;30234;48.090;11.464;2023-03-16T12:32:29;3.92;;;3.53;;
27778;SDS011;30234;48.090;11.464;2023-03-16T12:45:15;5.28;;;3.75;;
27778;SDS011;30234;48.090;11.464;2023-03-16T12:49:26;3.13;;;2.83;;
27778;SDS011;30234;48.090;11.464;2023-03-16T12:53:46;4.07;;;2.80;;
27778;SDS011;30234;48.090;11.464;2023-03-16T12:57:58;5.60;;;3.28;;
27778;SDS011;30234;48.090;11.464;2023-03-16T13:02:03;4.53;;;3.28;;
27778;SDS011;30234;48.090;11.464;2023-03-16T13:06:05;4.82;;;3.10;;
27778;SDS011;30234;48.090;11.464;2023-03-16T13:10:20;5.00;;;3.30;;
27778;SDS011;30234;48.090;11.464;2023-03-16T13:14:41;3.92;;;3.53;;
27778;SDS011;30234;48.090;11.464;2023-03-16T13:18:43;4.20;;;2.72;;
27778;SDS011;30234;48.090;11.464;2023-03-16T13:22:48;5.75;;;3.20;;
27778;SDS011;30234;48.090;11.464;2023-03-16T13:27:14;5.55;;;3.03;;
27778;SDS011;30234;48.090;11.464;2023-03-16T13:35:38;5.97;;;3.03;;
27778;SDS011;30234;48.090;11.464;2023-03-16T13:39:40;5.47;;;2.50;;
27778;SDS011;30234;48.090;11.464;2023-03-16T13:43:42;2.80;;;2.50;;
27778;SDS011;30234;48.090;11.464;2023-03-16T13:47:43;3.70;;;2.63;;
27778;SDS011;30234;48.090;11.464;2023-03-16T13:51:45;3.45;;;2.58;;
27778;SDS011;30234;48.090;11.464;2023-03-16T13:55:47;4.95;;;3.20;;
27778;SDS011;30234;48.090;11.464;2023-03-16T13:59:49;2.80;;;2.55;;
27778;SDS011;30234;48.090;11.464;2023-03-16T14:03:54;2.80;;;2.40;;
27778;SDS011;30234;48.090;11.464;2023-03-16T14:07:58;4.05;;;2.00;;
27778;SDS011;30234;48.090;11.464;2023-03-16T14:12:00;3.45;;;2.30;;
27778;SDS011;30234;48.090;11.464;2023-03-16T14:16:02;2.70;;;2.20;;
27778;SDS011;30234;48.090;11.464;2023-03-16T14:20:18;2.40;;;2.17;;
27778;SDS011;30234;48.090;11.464;2023-03-16T14:24:25;2.30;;;2.10;;
27778;SDS011;30234;48.090;11.464;2023-03-16T14:28:30;2.75;;;1.92;;
27778;SDS011;30234;48.090;11.464;2023-03-16T14:32:33;2.90;;;2.08;;
27778;SDS011;30234;48.090;11.464;2023-03-16T14:36:35;2.80;;;1.85;;
27778;SDS011;30234;48.090;11.464;2023-03-16T14:40:37;1.88;;;1.77;;
27778;SDS011;30234;48.090;11.464;2023-03-16T14:44:39;2.38;;;2.10;;
27778;SDS011;30234;48.090;11.464;2023-03-16T14:48:41;3.15;;;1.92;;
27778;SDS011;30234;48.090;11.464;2023-03-16T14:52:42;2.60;;;1.80;;
27778;SDS011;30234;48.090;11.464;2023-03-16T14:56:48;15.05;;;2.50;;
27778;SDS011;30234;48.090;11.464;2023-03-16T15:00:52;4.47;;;2.03;;
27778;SDS011;30234;48.090;11.464;2023-03-16T15:04:55;3.60;;;1.77;;
27778;SDS011;30234;48.090;11.464;2023-03-16T15:08:57;1.80;;;1.63;;
27778;SDS011;30234;48.090;11.464;2023-03-16T15:12:59;4.35;;;1.38;;
27778;SDS011;30234;48.090;11.464;2023-03-16T15:17:12;4.38;;;1.75;;
27778;SDS011;30234;48.090;11.464;2023-03-16T15:21:19;3.97;;;1.88;;
27778;SDS011;30234;48.090;11.464;2023-03-16T15:25:23;2.08;;;1.60;;
27778;SDS011;30234;48.090;11.464;2023-03-16T15:29:44;2.78;;;1.55;;
27778;SDS011;30234;48.090;11.464;2023-03-16T15:33:45;4.82;;;1.70;;
27778;SDS011;30234;48.090;11.464;2023-03-16T15:37:46;1.95;;;1.45;;
27778;SDS011;30234;48.090;11.464;2023-03-16T15:41:47;2.97;;;1.70;;
27778;SDS011;30234;48.090;11.464;2023-03-16T15:45:50;11.75;;;1.88;;
27778;SDS011;30234;48.090;11.464;2023-03-16T15:49:51;1.15;;;1.05;;
27778;SDS011;30234;48.090;11.464;2023-03-16T15:53:53;2.88;;;1.38;;
27778;SDS011;30234;48.090;11.464;2023-03-16T15:58:01;3.63;;;1.63;;
27778;SDS011;30234;48.090;11.464;2023-03-16T16:02:07;3.08;;;1.90;;
27778;SDS011;30234;48.090;11.464;2023-03-16T16:06:31;1.63;;;1.40;;
27778;SDS011;30234;48.090;11.464;2023-03-16T16:10:32;2.35;;;1.90;;
27778;SDS011;30234;48.090;11.464;2023-03-16T16:14:34;2.53;;;1.27;;
27778;SDS011;30234;48.090;11.464;2023-03-16T16:18:34;1.70;;;1.30;;
27778;SDS011;30234;48.090;11.464;2023-03-16T16:22:36;2.20;;;1.38;;
27778;SDS011;30234;48.090;11.464;2023-03-16T16:26:39;2.08;;;1.63;;
27778;SDS011;30234;48.090;11.464;2023-03-16T16:30:48;2.63;;;1.70;;
27778;SDS011;30234;48.090;11.464;2023-03-16T16:34:50;2.20;;;1.73;;
27778;SDS011;30234;48.090;11.464;2023-03-16T16:38:53;2.58;;;1.77;;
27778;SDS011;30234;48.090;11.464;2023-03-16T16:42:56;3.55;;;2.15;;
27778;SDS011;30234;48.090;11.464;2023-03-16T16:47:01;2.22;;;1.80;;
27778;SDS011;30234;48.090;11.464;2023-03-16T16:51:03;4.25;;;2.30;;
27778;SDS011;30234;48.090;11.464;2023-03-16T16:55:08;3.90;;;2.40;;
27778;SDS011;30234;48.090;11.464;2023-03-16T16:59:13;2.72;;;2.50;;
27778;SDS011;30234;48.090;11.464;2023-03-16T17:03:23;1.83;;;1.73;;
27778;SDS011;30234;48.090;11.464;2023-03-16T17:07:28;3.67;;;1.98;;
27778;SDS011;30234;48.090;11.464;2023-03-16T17:11:29;3.22;;;1.75;;
27778;SDS011;30234;48.090;11.464;2023-03-16T17:15:31;3.58;;;2.13;;
27778;SDS011;30234;48.090;11.464;2023-03-16T17:19:32;2.83;;;1.90;;
27778;SDS011;30234;48.090;11.464;2023-03-16T17:23:33;3.75;;;2.33;;
27778;SDS011;30234;48.090;11.464;2023-03-16T17:27:36;3.45;;;1.80;;
27778;SDS011;30234;48.090;11.464;2023-03-16T17:31:38;5.68;;;2.15;;
27778;SDS011;30234;48.090;11.464;2023-03-16T17:35:42;2.90;;;1.90;;
27778;SDS011;30234;48.090;11.464;2023-03-16T17:39:44;3.75;;;2.30;;
27778;SDS011;30234;48.090;11.464;2023-03-16T17:43:45;7.97;;;2.38;;
27778;SDS011;30234;48.090;11.464;2023-03-16T17:47:47;4.13;;;2.42;;
27778;SDS011;30234;48.090;11.464;2023-03-16T17:51:50;4.53;;;2.33;;
27778;SDS011;30234;48.090;11.464;2023-03-16T17:55:51;3.95;;;2.28;;
27778;SDS011;30234;48.090;11.464;2023-03-16T17:59:53;5.22;;;2.70;;
27778;SDS011;30234;48.090;11.464;2023-03-16T18:03:55;3.60;;;2.70;;
27778;SDS011;30234;48.090;11.464;2023-03-16T18:07:58;4.50;;;2.90;;
27778;SDS011;30234;48.090;11.464;2023-03-16T18:12:10;3.05;;;2.33;;
27778;SDS011;30234;48.090;11.464;2023-03-16T18:16:14;5.72;;;2.75;;
27778;SDS011;30234;48.090;11.464;2023-03-16T18:20:23;6.05;;;2.63;;
27778;SDS011;30234;48.090;11.464;2023-03-16T18:24:35;5.90;;;3.10;;
27778;SDS011;30234;48.090;11.464;2023-03-16T18:28:36;4.68;;;3.20;;
27778;SDS011;30234;48.090;11.464;2023-03-16T18:32:37;5.78;;;3.42;;
27778;SDS011;30234;48.090;11.464;2023-03-16T18:36:39;13.57;;;6.60;;
27778;SDS011;30234;48.090;11.464;2023-03-16T18:40:40;14.02;;;6.65;;
27778;SDS011;30234;48.090;11.464;2023-03-16T18:44:41;7.95;;;4.38;;
27778;SDS011;30234;48.090;11.464;2023-03-16T18:48:42;6.22;;;3.50;;
27778;SDS011;30234;48.090;11.464;2023-03-16T18:52:43;6.80;;;4.10;;
27778;SDS011;30234;48.090;11.464;2023-03-16T18:56:44;5.47;;;3.17;;
27778;SDS011;30234;48.090;11.464;2023-03-16T19:00:48;5.05;;;3.28;;
27778;SDS011;30234;48.090;11.464;2023-03-16T19:04:55;11.18;;;4.00;;
27778;SDS011;30234;48.090;11.464;2023-03-16T19:09:09;6.07;;;3.25;;
27778;SDS011;30234;48.090;11.464;2023-03-16T19:13:18;6.47;;;3.08;;
27778;SDS011;30234;48.090;11.464;2023-03-16T19:17:20;4.20;;;3.33;;
27778;SDS011;30234;48.090;11.464;2023-03-16T19:21:21;5.32;;;3.65;;
27778;SDS011;30234;48.090;11.464;2023-03-16T19:25:23;4.43;;;3.38;;
27778;SDS011;30234;48.090;11.464;2023-03-16T19:29:30;4.53;;;3.45;;
27778;SDS011;30234;48.090;11.464;2023-03-16T19:33:33;4.40;;;3.05;;
27778;SDS011;30234;48.090;11.464;2023-03-16T19:37:34;5.88;;;3.15;;
27778;SDS011;30234;48.090;11.464;2023-03-16T19:41:36;7.45;;;3.00;;
27778;SDS011;30234;48.090;11.464;2023-03-16T19:45:37;3.38;;;2.53;;
27778;SDS011;30234;48.090;11.464;2023-03-16T19:49:38;4.38;;;2.80;;
27778;SDS011;30234;48.090;11.464;2023-03-16T19:53:40;5.30;;;2.70;;
27778;SDS011;30234;48.090;11.464;2023-03-16T19:57:41;4.05;;;2.58;;
27778;SDS011;30234;48.090;11.464;2023-03-16T20:01:44;7.15;;;3.00;;
27778;SDS011;30234;48.090;11.464;2023-03-16T20:05:46;4.63;;;3.15;;
27778;SDS011;30234;48.090;11.464;2023-03-16T20:09:47;3.63;;;2.45;;
27778;SDS011;30234;48.090;11.464;2023-03-16T20:13:49;6.90;;;3.10;;
27778;SDS011;30234;48.090;11.464;2023-03-16T20:17:51;10.45;;;3.60;;
27778;SDS011;30234;48.090;11.464;2023-03-16T20:21:52;4.55;;;2.65;;
27778;SDS011;30234;48.090;11.464;2023-03-16T20:25:53;4.47;;;2.65;;
27778;SDS011;30234;48.090;11.464;2023-03-16T20:29:58;4.40;;;2.85;;
27778;SDS011;30234;48.090;11.464;2023-03-16T20:33:59;6.30;;;3.15;;
27778;SDS011;30234;48.090;11.464;2023-03-16T20:38:00;6.10;;;2.95;;
27778;SDS011;30234;48.090;11.464;2023-03-16T20:42:01;4.90;;;2.88;;
27778;SDS011;30234;48.090;11.464;2023-03-16T20:46:02;3.92;;;2.97;;
27778;SDS011;30234;48.090;11.464;2023-03-16T20:50:04;4.57;;;3.22;;
27778;SDS011;30234;48.090;11.464;2023-03-16T20:54:16;7.45;;;3.92;;
27778;SDS011;30234;48.090;11.464;2023-03-16T20:58:22;7.32;;;3.97;;
27778;SDS011;30234;48.090;11.464;2023-03-16T21:02:27;9.80;;;3.83;;
27778;SDS011;30234;48.090;11.464;2023-03-16T21:06:34;5.22;;;2.95;;
27778;SDS011;30234;48.090;11.464;2023-03-16T21:10:35;5.70;;;3.35;;
27778;SDS011;30234;48.090;11.464;2023-03-16T21:14:36;5.10;;;3.10;;
27778;SDS011;30234;48.090;11.464;2023-03-16T21:18:37;5.80;;;3.30;;
27778;SDS011;30234;48.090;11.464;2023-03-16T21:22:38;6.10;;;3.13;;
27778;SDS011;30234;48.090;11.464;2023-03-16T21:26:39;5.82;;;3.20;;
27778;SDS011;30234;48.090;11.464;2023-03-16T21:30:44;4.88;;;3.47;;
27778;SDS011;30234;48.090;11.464;2023-03-16T21:34:48;4.72;;;3.38;;
27778;SDS011;30234;48.090;11.464;2023-03-16T21:38:49;7.35;;;4.05;;
27778;SDS011;30234;48.090;11.464;2023-03-16T21:42:51;6.50;;;3.42;;
27778;SDS011;30234;48.090;11.464;2023-03-16T21:46:52;9.70;;;3.78;;
27778;SDS011;30234;48.090;11.464;2023-03-16T21:50:53;5.20;;;3.33;;
27778;SDS011;30234;48.090;11.464;2023-03-16T21:54:55;8.05;;;3.50;;
27778;SDS011;30234;48.090;11.464;2023-03-16T21:58:57;5.30;;;3.72;;
27778;SDS011;30234;48.090;11.464;2023-03-16T22:02:58;3.90;;;2.47;;
27778;SDS011;30234;48.090;11.464;2023-03-16T22:07:00;2.83;;;1.95;;
27778;SDS011;30234;48.090;11.464;2023-03-16T22:11:01;5.28;;;3.50;;
27778;SDS011;30234;48.090;11.464;2023-03-16T22:15:02;6.03;;;2.40;;
27778;SDS011;30234;48.090;11.464;2023-03-16T22:19:07;3.15;;;2.03;;
27778;SDS011;30234;48.090;11.464;2023-03-16T22:23:33;3.40;;;2.35;;
27778;SDS011;30234;48.090;11.464;2023-03-16T22:27:34;3.40;;;2.55;;
27778;SDS011;30234;48.090;11.464;2023-03-16T22:31:35;7.20;;;2.80;;
27778;SDS011;30234;48.090;11.464;2023-03-16T22:35:40;3.42;;;2.40;;
27778;SDS011;30234;48.090;11.464;2023-03-16T22:39:41;5.13;;;2.92;;
27778;SDS011;30234;48.090;11.464;2023-03-16T22:43:43;5.05;;;2.65;;
27778;SDS011;30234;48.090;11.464;2023-03-16T22:47:44;3.83;;;2.67;;
27778;SDS011;30234;48.090;11.464;2023-03-16T22:51:46;3.28;;;2.20;;
27778;SDS011;30234;48.090;11.464;2023-03-16T22:55:50;2.55;;;1.80;;
27778;SDS011;30234;48.090;11.464;2023-03-16T22:59:53;4.20;;;1.98;;
27778;SDS011;30234;48.090;11.464;2023-03-16T23:03:55;2.80;;;1.75;;
27778;SDS011;30234;48.090;11.464;2023-03-16T23:07:58;2.22;;;2.03;;
27778;SDS011;30234;48.090;11.464;2023-03-16T23:12:01;1.98;;;1.70;;
27778;SDS011;30234;48.090;11.464;2023-03-16T23:16:02;2.55;;;2.15;;
27778;SDS011;30234;48.090;11.464;2023-03-16T23:20:09;5.13;;;2.53;;
27778;SDS011;30234;48.090;11.464;2023-03-16T23:24:18;2.85;;;2.20;;
27778;SDS011;30234;48.090;11.464;2023-03-16T23:28:20;4.15;;;2.50;;
27778;SDS011;30234;48.090;11.464;2023-03-16T23:32:23;3.90;;;2.25;;
27778;SDS011;30234;48.090;11.464;2023-03-16T23:36:25;4.93;;;2.90;;
27778;SDS011;30234;48.090;11.464;2023-03-16T23:40:26;4.50;;;3.13;;
27778;SDS011;30234;48.090;11.464;2023-03-16T23:44:28;6.13;;;2.60;;
27778;SDS011;30234;48.090;11.464;2023-03-16T23:48:30;6.15;;;2.33;;
27778;SDS011;30234;48.090;11.464;2023-03-16T23:52:32;3.70;;;3.15;;
27778;SDS011;30234;48.090;11.464;2023-03-16T23:56:33;7.65;;;3.45;;
